Time;durP1;ratioP1;P1;durP2;ratioP2;P2;SDS_P1;SDS_P2;PMS_P1;PMS_P2;Temp;Humidity;BMP_temperature;BMP_pressure;BME280_temperature;BME280_humidity;BME280_pressure;Samples;Min_cycle;Max_cycle;Signal;HPM_P1;HPM_P2
2023/09/09 04:06:58;;;;;;;0.77;0.77;;;16.40;99.90;;;;;;4974051;28;20531;-67
2023/09/09 04:09:26;;;;;;;0.73;0.73;;;16.40;99.90;;;;;;4975967;28;20464;-66
2023/09/09 04:11:52;;;;;;;0.50;0.50;;;16.40;99.90;;;;;;4958652;28;20647;-66
2023/09/09 04:14:18;;;;;;;0.30;0.30;;;16.40;99.90;;;;;;4975649;28;20388;-67
2023/09/09 04:16:44;;;;;;;0.30;0.30;;;16.40;99.90;;;;;;4975954;28;20471;-65
2023/09/09 04:19:09;;;;;;;0.43;0.43;;;16.40;99.90;;;;;;4975975;28;20512;-67
2023/09/09 04:21:35;;;;;;;0.30;0.30;;;16.40;99.90;;;;;;4975908;28;20258;-67
2023/09/09 04:24:00;;;;;;;0.30;0.30;;;16.30;99.90;;;;;;4975237;28;20227;-66
2023/09/09 04:26:26;;;;;;;0.40;0.40;;;16.30;99.90;;;;;;4975771;28;20235;-67
2023/09/09 04:28:51;;;;;;;0.30;0.30;;;16.30;99.90;;;;;;4975711;28;20200;-67
2023/09/09 04:31:17;;;;;;;0.30;0.30;;;16.30;99.90;;;;;;4957942;28;20710;-66
2023/09/09 04:33:42;;;;;;;0.30;0.20;;;16.30;99.90;;;;;;4958023;28;20642;-67
2023/09/09 04:36:08;;;;;;;0.43;0.43;;;16.20;99.90;;;;;;4974319;28;20220;-67
2023/09/09 04:38:34;;;;;;;0.30;0.30;;;16.20;99.90;;;;;;4975433;28;20168;-67
2023/09/09 04:41:00;;;;;;;0.30;0.30;;;16.20;99.90;;;;;;4970681;28;20930;-67
2023/09/09 04:43:26;;;;;;;0.30;0.30;;;16.30;99.90;;;;;;4975057;28;20180;-66
2023/09/09 04:45:51;;;;;;;0.40;0.40;;;16.40;99.90;;;;;;4974729;28;20434;-66
2023/09/09 04:48:17;;;;;;;0.30;0.20;;;16.50;99.90;;;;;;4974988;28;20281;-66
2023/09/09 04:50:43;;;;;;;0.30;0.30;;;16.50;99.90;;;;;;4975025;28;20195;-66
2023/09/09 04:53:08;;;;;;;0.30;0.20;;;16.50;99.90;;;;;;4975096;28;20173;-67
2023/09/09 04:55:34;;;;;;;0.30;0.30;;;16.50;99.90;;;;;;4974807;28;20736;-65
2023/09/09 04:58:00;;;;;;;4.03;0.60;;;16.50;99.90;;;;;;4974968;28;20191;-67
2023/09/09 05:00:25;;;;;;;0.30;0.30;;;16.60;99.90;;;;;;4974826;28;20498;-65
2023/09/09 05:02:51;;;;;;;0.30;0.30;;;16.60;99.90;;;;;;4974948;28;20176;-67
2023/09/09 05:05:17;;;;;;;0.30;0.20;;;16.70;99.90;;;;;;4974476;28;20713;-66
2023/09/09 05:07:43;;;;;;;0.40;0.30;;;16.80;99.90;;;;;;4974807;28;20169;-68
2023/09/09 05:10:08;;;;;;;0.30;0.30;;;16.90;99.90;;;;;;4974942;28;20434;-67
2023/09/09 05:12:37;;;;;;;0.40;0.40;;;17.00;99.90;;;;;;4974973;28;20166;-66
2023/09/09 05:15:06;;;;;;;0.30;0.30;;;17.00;99.90;;;;;;4957110;28;20197;-66
2023/09/09 05:17:32;;;;;;;0.30;0.20;;;17.00;99.90;;;;;;4974894;28;20403;-66
2023/09/09 05:19:57;;;;;;;0.40;0.40;;;17.20;99.90;;;;;;4974926;28;20412;-67
2023/09/09 05:22:23;;;;;;;0.50;0.50;;;17.30;99.90;;;;;;4974930;28;20170;-68
2023/09/09 05:24:48;;;;;;;0.30;0.30;;;17.40;99.90;;;;;;4974446;28;20596;-67
2023/09/09 05:27:14;;;;;;;0.30;0.30;;;17.50;99.90;;;;;;4974686;28;20186;-67
2023/09/09 05:29:40;;;;;;;0.30;0.30;;;17.60;99.90;;;;;;4972640;28;20228;-67
2023/09/09 05:32:06;;;;;;;0.40;0.40;;;17.60;99.90;;;;;;4973877;28;20178;-67
2023/09/09 05:34:31;;;;;;;0.50;0.50;;;17.60;99.90;;;;;;4974517;28;20278;-66
2023/09/09 05:36:57;;;;;;;0.30;0.30;;;17.70;99.90;;;;;;4974887;28;20193;-67
2023/09/09 05:39:22;;;;;;;0.30;0.20;;;17.70;99.90;;;;;;4974612;28;20264;-66
2023/09/09 05:41:48;;;;;;;0.30;0.30;;;17.60;99.90;;;;;;4974504;28;20182;-67
2023/09/09 05:44:13;;;;;;;0.30;0.30;;;17.60;99.90;;;;;;4973394;28;20178;-65
2023/09/09 05:46:39;;;;;;;0.30;0.30;;;17.60;99.90;;;;;;4953424;28;20245;-67
2023/09/09 05:49:05;;;;;;;0.30;0.30;;;17.50;99.90;;;;;;4973658;28;20230;-66
2023/09/09 05:51:30;;;;;;;0.30;0.30;;;17.50;99.90;;;;;;4974503;28;20170;-66
2023/09/09 05:53:56;;;;;;;0.30;0.20;;;17.60;99.90;;;;;;4956765;28;20197;-66
2023/09/09 05:56:22;;;;;;;0.90;0.50;;;17.60;99.90;;;;;;4974305;28;20195;-67
2023/09/09 05:58:47;;;;;;;0.40;0.40;;;17.60;99.90;;;;;;4958107;28;20331;-67
2023/09/09 06:01:13;;;;;;;0.50;0.50;;;17.60;99.90;;;;;;4957233;28;20252;-66
2023/09/09 06:03:39;;;;;;;0.30;0.20;;;17.70;99.90;;;;;;4962916;28;20534;-66
2023/09/09 06:06:05;;;;;;;0.30;0.30;;;17.70;99.90;;;;;;4958894;29;20263;-66
2023/09/09 06:08:31;;;;;;;0.60;0.60;;;17.80;99.90;;;;;;4941488;29;20687;-68
2023/09/09 06:10:57;;;;;;;0.30;0.30;;;17.90;99.90;;;;;;4966290;28;20424;-66
2023/09/09 06:13:23;;;;;;;0.30;0.30;;;18.00;99.90;;;;;;4967543;28;20409;-66
2023/09/09 06:15:48;;;;;;;0.30;0.23;;;18.10;99.90;;;;;;4993834;28;20219;-64
2023/09/09 06:18:14;;;;;;;0.30;0.20;;;18.20;99.90;;;;;;4997289;28;20411;-66
2023/09/09 06:20:46;;;;;;;0.30;0.20;;;18.30;99.90;;;;;;4997643;28;20175;-66
2023/09/09 06:23:12;;;;;;;0.50;0.50;;;18.50;99.90;;;;;;4980509;28;20195;-67
2023/09/09 06:25:37;;;;;;;0.70;0.70;;;18.70;99.90;;;;;;4977561;28;20944;-66
2023/09/09 06:28:03;;;;;;;0.30;0.30;;;18.90;99.90;;;;;;4977920;28;20636;-66
2023/09/09 06:30:29;;;;;;;0.30;0.30;;;19.10;99.90;;;;;;4977486;28;20607;-67
2023/09/09 06:32:54;;;;;;;0.30;0.30;;;19.30;99.90;;;;;;4964919;28;20212;-63
2023/09/09 06:35:22;;;;;;;1.53;0.40;;;19.40;99.90;;;;;;4957909;29;20200;-66
2023/09/09 06:37:47;;;;;;;0.30;0.30;;;19.50;99.90;;;;;;4958486;28;20192;-65
2023/09/09 06:40:13;;;;;;;0.30;0.30;;;19.60;99.90;;;;;;4958419;29;20755;-65
2023/09/09 06:42:38;;;;;;;0.40;0.40;;;19.60;99.90;;;;;;4958135;28;20184;-65
2023/09/09 06:45:04;;;;;;;0.30;0.30;;;19.60;99.90;;;;;;4957549;28;20583;-65
2023/09/09 06:47:30;;;;;;;1.00;1.00;;;19.60;99.90;;;;;;4965063;28;20200;-65
2023/09/09 06:49:56;;;;;;;0.40;0.33;;;19.70;99.90;;;;;;4976875;28;20437;-66
2023/09/09 06:52:21;;;;;;;1.27;0.90;;;19.80;99.90;;;;;;4974449;28;20292;-67
2023/09/09 06:54:47;;;;;;;0.73;0.73;;;20.00;99.90;;;;;;4960264;28;20209;-67
2023/09/09 06:57:12;;;;;;;0.30;0.30;;;20.10;99.90;;;;;;4958201;29;20628;-67
2023/09/09 06:59:39;;;;;;;0.50;0.50;;;20.30;99.90;;;;;;4961696;28;20548;-65
2023/09/09 07:02:06;;;;;;;0.30;0.20;;;20.50;99.90;;;;;;4977134;28;20231;-65
2023/09/09 07:04:31;;;;;;;0.57;0.57;;;20.70;99.90;;;;;;4976261;28;20465;-65
2023/09/09 07:06:57;;;;;;;0.40;0.40;;;20.90;99.90;;;;;;4977189;28;20406;-65
2023/09/09 07:09:23;;;;;;;0.30;0.30;;;21.10;99.90;;;;;;4977237;28;20283;-63
2023/09/09 07:11:48;;;;;;;2.40;1.70;;;21.20;99.90;;;;;;4977171;28;20251;-68
2023/09/09 07:14:14;;;;;;;0.33;0.33;;;21.40;99.90;;;;;;4975434;28;20174;-67
2023/09/09 07:16:39;;;;;;;0.40;0.40;;;21.60;99.90;;;;;;4964634;28;20214;-68
2023/09/09 07:19:05;;;;;;;0.30;0.30;;;21.80;99.90;;;;;;4957673;29;20534;-66
2023/09/09 07:21:30;;;;;;;0.80;0.80;;;22.00;99.90;;;;;;4957764;29;20225;-68
2023/09/09 07:23:56;;;;;;;0.30;0.30;;;22.20;99.90;;;;;;4957315;29;20181;-67
2023/09/09 07:26:21;;;;;;;0.30;0.30;;;22.30;99.90;;;;;;4957560;29;20203;-67
2023/09/09 07:28:47;;;;;;;0.60;0.60;;;22.40;99.90;;;;;;4957361;29;20201;-67
2023/09/09 07:31:13;;;;;;;0.30;0.30;;;22.50;99.90;;;;;;4957944;28;20185;-65
2023/09/09 07:33:39;;;;;;;1.03;1.03;;;22.70;99.90;;;;;;4957252;29;20504;-66
2023/09/09 07:36:05;;;;;;;0.47;0.47;;;22.80;99.90;;;;;;4957294;29;20192;-68
2023/09/09 07:38:30;;;;;;;0.60;0.60;;;23.00;99.90;;;;;;4957564;29;20378;-65
2023/09/09 07:40:57;;;;;;;1.33;0.60;;;23.00;99.90;;;;;;4940183;29;20187;-67
2023/09/09 07:43:23;;;;;;;0.40;0.30;;;23.10;99.90;;;;;;4957266;29;20177;-68
2023/09/09 07:45:50;;;;;;;0.60;0.60;;;23.10;99.90;;;;;;4967117;28;20517;-66
2023/09/09 07:48:15;;;;;;;0.83;0.50;;;23.20;99.90;;;;;;4976246;28;20989;-67
2023/09/09 07:50:48;;;;;;;0.47;0.47;;;23.40;99.90;;;;;;4976596;28;20386;-66
2023/09/09 07:53:14;;;;;;;0.30;0.20;;;23.90;99.90;;;;;;4961910;28;20462;-67
2023/09/09 07:55:40;;;;;;;0.40;0.37;;;24.60;99.90;;;;;;4956652;28;20773;-67
2023/09/09 07:58:05;;;;;;;0.70;0.53;;;25.60;99.90;;;;;;4957350;29;20180;-67
2023/09/09 08:00:31;;;;;;;0.40;0.40;;;26.70;99.90;;;;;;4957061;29;20180;-65
2023/09/09 08:02:56;;;;;;;0.30;0.30;;;27.90;99.90;;;;;;4957000;29;20504;-65
2023/09/09 08:05:22;;;;;;;0.47;0.47;;;29.10;99.90;;;;;;4956294;29;20201;-67
2023/09/09 08:07:48;;;;;;;0.50;0.47;;;30.20;98.80;;;;;;4969329;28;20192;-65
2023/09/09 08:10:16;;;;;;;0.57;0.57;;;31.10;96.70;;;;;;4976078;28;20176;-67
2023/09/09 08:12:41;;;;;;;0.60;0.60;;;31.90;95.00;;;;;;4976006;28;20183;-66
2023/09/09 08:15:09;;;;;;;0.60;0.60;;;32.70;94.30;;;;;;4975381;28;20439;-67
2023/09/09 08:17:35;;;;;;;0.37;0.37;;;33.60;91.90;;;;;;4975156;28;20259;-66
2023/09/09 08:20:06;;;;;;;0.80;0.70;;;34.40;90.80;;;;;;4975911;28;21046;-68
2023/09/09 08:22:31;;;;;;;0.53;0.53;;;35.30;89.60;;;;;;4975882;28;20257;-65
2023/09/09 08:24:57;;;;;;;1.80;1.40;;;36.00;85.50;;;;;;4974745;28;20439;-69
2023/09/09 08:27:22;;;;;;;2.23;2.13;;;36.40;83.70;;;;;;4958190;28;20183;-67
2023/09/09 08:29:48;;;;;;;1.90;1.77;;;36.80;81.90;;;;;;4975649;28;20294;-66
2023/09/09 08:32:14;;;;;;;2.30;2.17;;;37.20;79.20;;;;;;4970027;28;20232;-67
2023/09/09 08:34:41;;;;;;;1.73;1.63;;;37.30;78.80;;;;;;4964437;28;20238;-67
2023/09/09 08:37:07;;;;;;;2.40;2.20;;;37.20;77.80;;;;;;4975682;28;20164;-67
2023/09/09 08:39:33;;;;;;;3.27;2.97;;;37.30;78.10;;;;;;4975572;28;20487;-66
2023/09/09 08:42:07;;;;;;;2.80;1.70;;;37.50;77.90;;;;;;4972351;28;20239;-68
2023/09/09 08:45:09;;;;;;;2.03;1.93;;;37.80;77.40;;;;;;4955644;29;20187;-66
2023/09/09 08:47:36;;;;;;;2.53;2.00;;;38.30;75.50;;;;;;4923973;29;20419;-68
2023/09/09 08:50:04;;;;;;;2.77;2.57;;;38.50;73.00;;;;;;4956543;29;20535;-67
2023/09/09 08:52:29;;;;;;;1.90;1.77;;;38.40;74.50;;;;;;4955934;29;20444;-67
2023/09/09 08:54:56;;;;;;;2.20;2.10;;;38.10;73.00;;;;;;4955432;29;20467;-67
2023/09/09 08:57:27;;;;;;;2.27;2.07;;;38.20;74.30;;;;;;4946805;28;20180;-67
2023/09/09 08:59:53;;;;;;;3.13;2.87;;;38.40;72.50;;;;;;4975116;28;20427;-66
2023/09/09 09:02:18;;;;;;;2.27;2.10;;;38.50;72.10;;;;;;4975132;28;20415;-68
2023/09/09 09:04:45;;;;;;;2.57;2.37;;;38.60;73.20;;;;;;4974927;28;20439;-66
2023/09/09 09:07:12;;;;;;;2.00;1.90;;;38.80;71.50;;;;;;4974834;28;20550;-68
2023/09/09 09:09:38;;;;;;;2.70;2.60;;;39.00;69.80;;;;;;4974990;28;21039;-68
2023/09/09 09:12:04;;;;;;;2.17;1.97;;;39.10;70.40;;;;;;4966416;28;20461;-68
2023/09/09 09:14:29;;;;;;;2.60;2.40;;;39.00;70.70;;;;;;4955252;29;20667;-67
2023/09/09 09:16:55;;;;;;;2.57;2.47;;;39.20;69.00;;;;;;4955514;29;20403;-68
2023/09/09 09:19:29;;;;;;;2.00;1.90;;;39.40;70.50;;;;;;4955470;29;20275;-67
2023/09/09 09:21:59;;;;;;;2.23;2.13;;;39.70;67.50;;;;;;4955481;29;20408;-68
2023/09/09 09:24:28;;;;;;;2.50;2.37;;;39.70;67.70;;;;;;4955158;29;20411;-67
2023/09/09 09:26:55;;;;;;;2.30;2.20;;;39.60;66.50;;;;;;4964185;28;20419;-68
2023/09/09 09:29:21;;;;;;;2.20;2.10;;;39.70;67.90;;;;;;4974791;28;20415;-66
2023/09/09 09:31:51;;;;;;;2.03;1.93;;;39.90;67.40;;;;;;4971586;28;20486;-66
2023/09/09 09:34:18;;;;;;;2.30;2.13;;;40.00;67.20;;;;;;4955121;29;20216;-67
2023/09/09 09:36:45;;;;;;;2.73;2.53;;;40.10;67.60;;;;;;4954583;28;20915;-67
2023/09/09 09:39:10;;;;;;;2.17;2.07;;;40.20;66.10;;;;;;4938180;29;20479;-67
2023/09/09 09:41:39;;;;;;;3.40;3.20;;;40.30;66.20;;;;;;4955553;29;20929;-66
2023/09/09 09:44:15;;;;;;;2.23;2.13;;;40.50;66.30;;;;;;4954753;29;20705;-66
2023/09/09 09:46:41;;;;;;;2.67;2.57;;;40.70;65.90;;;;;;4959120;28;20474;-66
2023/09/09 09:49:08;;;;;;;3.23;3.03;;;40.90;63.90;;;;;;4974676;28;20947;-66
2023/09/09 09:51:43;;;;;;;2.87;2.67;;;41.00;63.40;;;;;;4974541;28;20259;-66
2023/09/09 09:54:09;;;;;;;4.50;2.40;;;41.20;63.90;;;;;;4974186;28;20423;-66
2023/09/09 09:56:38;;;;;;;2.90;2.67;;;41.50;62.60;;;;;;4974470;28;20570;-66
2023/09/09 09:59:05;;;;;;;3.10;2.90;;;41.50;60.80;;;;;;4974514;28;20307;-66
2023/09/09 10:01:32;;;;;;;2.47;2.37;;;41.30;62.00;;;;;;4969400;28;20782;-65
2023/09/09 10:04:05;;;;;;;3.07;2.20;;;40.80;61.60;;;;;;4954965;29;20396;-66
2023/09/09 10:06:34;;;;;;;2.63;2.50;;;40.50;63.80;;;;;;4954851;29;20451;-66
2023/09/09 10:09:18;;;;;;;2.50;2.30;;;40.30;62.90;;;;;;4955241;29;20405;-65
2023/09/09 10:11:58;;;;;;;2.40;2.20;;;40.10;64.00;;;;;;4955162;29;20436;-64
2023/09/09 10:14:26;;;;;;;2.33;2.20;;;40.00;63.60;;;;;;4954670;29;20404;-65
2023/09/09 10:16:53;;;;;;;2.30;2.10;;;39.80;63.70;;;;;;4964354;28;20423;-65
2023/09/09 10:19:20;;;;;;;2.63;2.43;;;39.70;65.30;;;;;;4974336;28;20499;-67
2023/09/09 10:21:47;;;;;;;2.40;2.00;;;39.50;65.10;;;;;;4971809;28;20527;-67
2023/09/09 10:24:15;;;;;;;1.97;1.87;;;39.00;65.90;;;;;;4954630;29;20432;-67
2023/09/09 10:26:42;;;;;;;2.70;2.50;;;38.80;65.50;;;;;;4954986;29;20455;-65
2023/09/09 10:29:09;;;;;;;2.37;2.27;;;38.60;66.20;;;;;;4955054;29;20421;-65
2023/09/09 10:31:36;;;;;;;2.00;1.83;;;38.60;65.30;;;;;;4937767;29;20499;-66
2023/09/09 10:34:02;;;;;;;2.10;1.90;;;38.60;64.90;;;;;;4954514;29;20504;-67
2023/09/09 10:36:31;;;;;;;1.80;1.70;;;38.70;64.30;;;;;;4956601;28;20463;-65
2023/09/09 10:38:57;;;;;;;2.10;2.00;;;38.70;63.90;;;;;;4974141;28;20463;-66
2023/09/09 10:41:22;;;;;;;2.23;1.53;;;38.80;64.20;;;;;;4974263;28;20411;-67
2023/09/09 10:43:48;;;;;;;1.90;1.60;;;38.60;65.10;;;;;;4973891;28;20183;-67
2023/09/09 10:46:14;;;;;;;1.47;1.47;;;38.60;63.30;;;;;;4974106;28;20295;-67
2023/09/09 10:48:43;;;;;;;1.80;1.70;;;38.50;64.80;;;;;;4976212;28;20188;-67
2023/09/09 10:51:09;;;;;;;1.77;1.67;;;38.20;65.10;;;;;;4975821;28;20172;-65
2023/09/09 10:53:35;;;;;;;3.13;2.00;;;37.90;65.00;;;;;;4957926;29;20427;-68
2023/09/09 10:56:23;;;;;;;2.10;1.93;;;37.80;66.40;;;;;;4940519;29;20447;-66
2023/09/09 10:58:52;;;;;;;2.50;2.37;;;37.90;66.30;;;;;;4958066;29;20507;-67
2023/09/09 11:01:24;;;;;;;2.00;1.90;;;38.10;66.20;;;;;;4958040;29;20401;-67
2023/09/09 11:03:51;;;;;;;2.00;1.90;;;38.00;66.90;;;;;;4957449;29;20409;-67
2023/09/09 11:06:24;;;;;;;1.50;1.40;;;37.60;66.20;;;;;;4962054;28;21011;-64
2023/09/09 11:08:59;;;;;;;2.23;1.70;;;36.80;66.70;;;;;;4977105;28;20408;-69
2023/09/09 11:11:33;;;;;;;1.40;1.30;;;35.60;70.00;;;;;;4977139;28;20424;-66
2023/09/09 11:14:03;;;;;;;1.17;1.07;;;34.80;72.10;;;;;;4976546;28;20423;-69
2023/09/09 11:16:34;;;;;;;1.53;1.20;;;34.10;74.30;;;;;;4976821;28;20946;-67
2023/09/09 11:19:05;;;;;;;1.50;1.13;;;33.40;75.30;;;;;;4977121;28;20447;-66
2023/09/09 11:21:37;;;;;;;1.10;0.83;;;33.00;77.40;;;;;;4967812;28;20403;-67
2023/09/09 11:24:03;;;;;;;1.20;1.17;;;32.60;79.10;;;;;;4956999;28;20434;-67
2023/09/09 11:26:30;;;;;;;0.93;0.93;;;32.30;80.10;;;;;;4957553;29;20802;-66
2023/09/09 11:28:56;;;;;;;0.60;0.60;;;32.10;80.20;;;;;;4957587;29;20387;-66
2023/09/09 11:31:23;;;;;;;1.57;1.40;;;31.50;79.50;;;;;;4957364;29;20391;-65
2023/09/09 11:33:48;;;;;;;2.10;1.70;;;31.20;82.40;;;;;;4974830;28;20804;-67
2023/09/09 11:36:18;;;;;;;0.73;0.63;;;31.00;83.80;;;;;;4976712;28;20402;-67
2023/09/09 11:38:44;;;;;;;1.27;0.83;;;30.80;84.70;;;;;;4976654;28;20207;-68
2023/09/09 11:41:26;;;;;;;2.23;1.13;;;30.60;85.30;;;;;;4976480;28;20478;-66
2023/09/09 11:44:06;;;;;;;1.03;1.03;;;30.40;84.30;;;;;;4976270;28;20386;-67
2023/09/09 11:46:41;;;;;;;1.20;1.20;;;30.20;85.40;;;;;;4974142;28;20461;-67
2023/09/09 11:49:08;;;;;;;0.40;0.40;;;30.00;87.20;;;;;;4956960;28;20432;-66
2023/09/09 11:51:35;;;;;;;0.90;0.70;;;29.90;87.10;;;;;;4957054;29;20463;-66
2023/09/09 11:54:03;;;;;;;0.90;0.90;;;29.90;90.10;;;;;;4956776;29;20387;-66
2023/09/09 11:56:31;;;;;;;1.23;0.93;;;29.80;86.50;;;;;;4957080;29;20396;-67
2023/09/09 11:58:57;;;;;;;0.70;0.70;;;29.80;87.10;;;;;;4956209;28;20447;-67
2023/09/09 12:01:23;;;;;;;1.33;0.87;;;29.80;88.60;;;;;;4969818;28;20398;-67
2023/09/09 12:03:50;;;;;;;0.50;0.50;;;29.80;88.70;;;;;;4975826;28;20169;-68
2023/09/09 12:06:18;;;;;;;1.03;0.83;;;29.80;87.60;;;;;;4975820;28;20459;-66
2023/09/09 12:08:46;;;;;;;1.07;1.00;;;29.80;87.10;;;;;;4975955;28;20387;-68
2023/09/09 12:11:14;;;;;;;0.50;0.50;;;29.80;89.60;;;;;;4976076;28;20422;-66
2023/09/09 12:13:40;;;;;;;1.83;1.03;;;29.80;88.50;;;;;;4975392;28;20829;-66
2023/09/09 12:16:09;;;;;;;1.07;1.07;;;29.90;87.50;;;;;;4962259;28;20510;-66
2023/09/09 12:18:34;;;;;;;0.70;0.70;;;29.90;88.30;;;;;;4956829;29;20448;-67
2023/09/09 12:21:05;;;;;;;2.30;0.83;;;29.80;88.10;;;;;;4956453;29;20719;-66
2023/09/09 12:23:38;;;;;;;0.63;0.63;;;29.80;90.10;;;;;;4952564;28;20207;-67
2023/09/09 12:26:12;;;;;;;0.47;0.47;;;29.80;90.00;;;;;;4975799;28;20510;-68
2023/09/09 12:28:43;;;;;;;0.60;0.60;;;29.80;90.00;;;;;;4975730;28;20411;-67
2023/09/09 12:31:10;;;;;;;0.57;0.57;;;29.80;90.20;;;;;;4975694;28;20387;-67
2023/09/09 12:33:44;;;;;;;1.60;1.53;;;29.90;88.00;;;;;;4975378;28;20393;-67
2023/09/09 12:36:18;;;;;;;0.97;0.97;;;29.80;86.40;;;;;;4975372;28;20427;-66
2023/09/09 12:38:46;;;;;;;0.53;0.43;;;29.90;86.20;;;;;;4941723;28;20430;-68
2023/09/09 12:41:15;;;;;;;0.60;0.60;;;29.90;87.60;;;;;;4955900;29;20941;-66
2023/09/09 12:43:41;;;;;;;0.57;0.57;;;30.00;87.50;;;;;;4955985;29;20467;-68
2023/09/09 12:46:11;;;;;;;0.60;0.57;;;29.90;86.60;;;;;;4956038;29;20515;-66
2023/09/09 12:48:56;;;;;;;0.40;0.40;;;29.90;89.00;;;;;;4956014;29;20220;-66
2023/09/09 12:51:28;;;;;;;0.30;0.30;;;30.00;90.10;;;;;;4938867;28;20419;-67
2023/09/09 12:53:54;;;;;;;0.87;0.87;;;30.00;87.50;;;;;;4975261;28;20430;-68
2023/09/09 12:56:20;;;;;;;0.50;0.50;;;30.00;85.80;;;;;;4975047;28;20427;-67
2023/09/09 12:58:46;;;;;;;2.93;0.87;;;30.00;86.50;;;;;;4975130;28;20418;-67
2023/09/09 13:01:13;;;;;;;0.73;0.70;;;30.00;87.40;;;;;;4975163;28;20176;-67
2023/09/09 13:03:39;;;;;;;0.97;0.77;;;30.00;87.70;;;;;;4974875;28;20442;-68
2023/09/09 13:06:06;;;;;;;0.63;0.63;;;30.00;85.70;;;;;;4974338;28;20835;-67
2023/09/09 13:08:33;;;;;;;1.03;1.03;;;29.90;85.80;;;;;;4955797;29;20423;-68
2023/09/09 13:10:59;;;;;;;0.60;0.60;;;29.80;86.70;;;;;;4955785;28;20517;-69
2023/09/09 13:13:25;;;;;;;1.47;1.00;;;29.80;87.60;;;;;;4955827;29;20436;-69
2023/09/09 13:15:50;;;;;;;1.07;0.80;;;29.70;87.70;;;;;;4955336;29;20931;-66
2023/09/09 13:18:18;;;;;;;0.30;0.30;;;29.80;87.60;;;;;;4955648;29;20184;-66
2023/09/09 13:20:44;;;;;;;1.10;1.00;;;29.70;87.60;;;;;;4955405;28;20181;-67
2023/09/09 13:23:10;;;;;;;0.60;0.50;;;29.70;86.80;;;;;;4974772;28;20431;-66
2023/09/09 13:25:35;;;;;;;3.53;1.00;;;29.70;86.50;;;;;;4974296;28;20925;-66
2023/09/09 13:28:01;;;;;;;0.90;0.90;;;29.70;87.50;;;;;;4974861;28;20242;-65
2023/09/09 13:30:27;;;;;;;0.70;0.70;;;29.70;86.60;;;;;;4974646;28;20187;-68
2023/09/09 13:32:52;;;;;;;0.50;0.50;;;29.70;87.00;;;;;;4974814;28;20172;-68
2023/09/09 13:35:18;;;;;;;0.70;0.70;;;29.80;87.00;;;;;;4974194;28;20193;-69
2023/09/09 13:37:43;;;;;;;1.50;0.90;;;29.80;86.70;;;;;;4956767;28;20211;-65
2023/09/09 13:40:09;;;;;;;1.43;1.27;;;29.80;88.00;;;;;;4962816;28;20295;-68
2023/09/09 13:42:35;;;;;;;0.60;0.60;;;29.80;89.30;;;;;;4955591;28;20582;-66
2023/09/09 13:45:00;;;;;;;0.63;0.63;;;29.80;88.30;;;;;;4954744;29;20197;-69
2023/09/09 13:47:27;;;;;;;1.10;1.03;;;29.80;87.30;;;;;;4955396;29;20639;-66
2023/09/09 13:49:53;;;;;;;0.60;0.60;;;29.80;88.50;;;;;;4955194;29;20210;-66
2023/09/09 13:52:18;;;;;;;0.50;0.50;;;29.80;87.40;;;;;;4955263;28;20424;-68
2023/09/09 13:54:44;;;;;;;0.77;0.70;;;29.80;86.60;;;;;;4954658;28;20209;-66
2023/09/09 13:57:10;;;;;;;0.50;0.50;;;29.80;87.40;;;;;;4955365;28;20208;-68
2023/09/09 13:59:37;;;;;;;0.90;0.90;;;29.80;88.10;;;;;;4955172;29;20467;-69
2023/09/09 14:02:03;;;;;;;0.67;0.67;;;29.80;87.70;;;;;;4955236;29;20177;-69
2023/09/09 14:04:29;;;;;;;1.07;0.93;;;29.80;88.10;;;;;;4954730;29;20940;-66
2023/09/09 14:06:55;;;;;;;1.67;1.57;;;29.80;89.00;;;;;;4955131;28;20193;-68
2023/09/09 14:09:20;;;;;;;0.87;0.87;;;29.80;88.20;;;;;;4954891;28;20511;-67
2023/09/09 14:11:46;;;;;;;0.53;0.50;;;29.80;87.20;;;;;;4937600;29;20184;-69
2023/09/09 14:14:12;;;;;;;1.00;0.83;;;29.80;87.20;;;;;;4954589;29;20656;-68
2023/09/09 14:16:38;;;;;;;0.77;0.70;;;29.80;88.90;;;;;;4954981;29;20208;-69
2023/09/09 14:19:04;;;;;;;1.27;1.10;;;29.80;89.60;;;;;;4972440;28;20436;-68
2023/09/09 14:21:30;;;;;;;0.73;0.67;;;29.80;89.30;;;;;;4977921;28;20420;-70
2023/09/09 14:23:56;;;;;;;1.03;1.03;;;29.80;87.60;;;;;;4977071;28;20766;-68
2023/09/09 14:26:21;;;;;;;0.97;0.97;;;29.70;87.10;;;;;;4970662;28;20275;-68
2023/09/09 14:28:47;;;;;;;1.07;1.07;;;29.70;87.90;;;;;;4961027;28;20192;-69
2023/09/09 14:31:12;;;;;;;0.70;0.63;;;29.70;88.70;;;;;;4958742;29;20177;-69
2023/09/09 14:33:38;;;;;;;0.73;0.70;;;29.70;87.50;;;;;;4958354;29;20635;-70
2023/09/09 14:36:04;;;;;;;0.77;0.70;;;29.70;88.30;;;;;;4958235;28;20211;-69
2023/09/09 14:38:29;;;;;;;0.90;0.90;;;29.60;89.00;;;;;;4958309;29;20255;-70
2023/09/09 14:40:55;;;;;;;0.87;0.83;;;29.60;88.50;;;;;;4961667;28;20181;-68
2023/09/09 14:43:20;;;;;;;0.50;0.40;;;29.50;88.40;;;;;;4974411;28;20184;-67
2023/09/09 14:45:46;;;;;;;0.60;0.60;;;29.50;89.10;;;;;;4957753;28;20208;-69
2023/09/09 14:48:13;;;;;;;0.90;0.90;;;29.40;89.60;;;;;;4958235;28;20172;-66
2023/09/09 14:50:42;;;;;;;0.47;0.47;;;29.40;89.70;;;;;;4957933;29;20231;-67
2023/09/09 14:53:09;;;;;;;1.10;1.10;;;29.30;89.80;;;;;;4970573;28;20423;-70
2023/09/09 14:55:34;;;;;;;0.70;0.70;;;29.30;90.00;;;;;;4957813;28;20834;-70
2023/09/09 14:58:00;;;;;;;0.77;0.77;;;29.30;90.00;;;;;;4958193;28;20424;-69
2023/09/09 15:00:26;;;;;;;0.43;0.43;;;29.30;90.30;;;;;;4958271;28;20208;-69
2023/09/09 15:02:51;;;;;;;0.80;0.73;;;29.30;90.50;;;;;;4960902;28;20177;-70
2023/09/09 15:05:17;;;;;;;0.60;0.60;;;29.30;90.70;;;;;;4957344;28;20189;-70
2023/09/09 15:07:43;;;;;;;0.60;0.60;;;29.30;90.60;;;;;;4957689;29;20177;-67
2023/09/09 15:10:09;;;;;;;0.90;0.90;;;29.30;90.40;;;;;;4957634;29;20442;-67
2023/09/09 15:12:34;;;;;;;0.67;0.67;;;29.20;90.60;;;;;;4944028;29;20184;-67
2023/09/09 15:15:00;;;;;;;0.87;0.87;;;29.20;90.90;;;;;;4974808;28;20203;-68
2023/09/09 15:17:26;;;;;;;0.80;0.80;;;29.20;90.50;;;;;;4976907;28;20176;-68
2023/09/09 15:19:52;;;;;;;0.70;0.70;;;29.20;90.30;;;;;;4972141;28;20233;-70
2023/09/09 15:22:18;;;;;;;0.60;0.60;;;29.10;90.30;;;;;;4957633;29;20323;-67
2023/09/09 15:24:44;;;;;;;0.90;0.90;;;29.10;90.20;;;;;;4960479;28;20414;-68
2023/09/09 15:27:09;;;;;;;0.53;0.50;;;29.00;90.30;;;;;;4940382;29;20189;-68
2023/09/09 15:29:35;;;;;;;1.47;0.70;;;29.00;90.30;;;;;;4957210;29;20239;-67
2023/09/09 15:32:01;;;;;;;0.97;0.97;;;29.00;90.40;;;;;;4957175;29;20181;-68
2023/09/09 15:34:26;;;;;;;0.70;0.70;;;29.00;90.60;;;;;;4956024;28;20303;-67
2023/09/09 15:36:52;;;;;;;1.17;1.17;;;29.00;90.70;;;;;;4973921;28;20184;-69
2023/09/09 15:39:17;;;;;;;0.63;0.63;;;28.90;91.00;;;;;;4976183;28;20211;-67
2023/09/09 15:41:43;;;;;;;0.90;0.90;;;28.90;90.50;;;;;;4976194;28;20262;-68
2023/09/09 15:44:09;;;;;;;0.40;0.40;;;28.80;90.60;;;;;;4957798;28;20202;-68
2023/09/09 15:46:34;;;;;;;0.70;0.70;;;28.80;90.80;;;;;;4957275;29;20195;-67
2023/09/09 15:49:00;;;;;;;1.00;0.73;;;28.80;90.80;;;;;;4957422;29;20168;-67
2023/09/09 15:51:26;;;;;;;0.30;0.30;;;28.80;90.90;;;;;;4966482;28;20183;-67
2023/09/09 15:53:52;;;;;;;0.70;0.63;;;28.70;90.90;;;;;;4975218;28;20191;-67
2023/09/09 15:56:18;;;;;;;3.40;1.53;;;28.70;90.70;;;;;;4976284;28;20206;-69
2023/09/09 15:58:44;;;;;;;1.37;1.27;;;28.70;90.70;;;;;;4959656;28;20203;-69
2023/09/09 16:01:10;;;;;;;0.87;0.50;;;28.70;90.90;;;;;;4956879;29;20771;-67
2023/09/09 16:03:36;;;;;;;2.70;0.90;;;28.60;90.60;;;;;;4957501;28;20419;-69
2023/09/09 16:06:07;;;;;;;0.70;0.70;;;28.60;90.80;;;;;;4956394;28;20451;-66
2023/09/09 16:08:37;;;;;;;0.40;0.40;;;28.50;90.80;;;;;;4956806;28;20454;-68
2023/09/09 16:11:04;;;;;;;0.40;0.40;;;28.50;90.60;;;;;;4956797;29;20418;-65
2023/09/09 16:13:30;;;;;;;1.13;1.03;;;28.50;90.60;;;;;;4967450;28;20436;-65
2023/09/09 16:16:04;;;;;;;0.60;0.60;;;28.50;90.80;;;;;;4960921;28;20434;-65
2023/09/09 16:18:31;;;;;;;0.40;0.40;;;28.40;91.00;;;;;;4963245;28;20456;-65
2023/09/09 16:20:58;;;;;;;0.50;0.40;;;28.40;90.80;;;;;;4957311;28;20406;-65
2023/09/09 16:23:23;;;;;;;1.50;1.37;;;28.30;90.90;;;;;;4939379;29;20427;-64
2023/09/09 16:25:49;;;;;;;0.73;0.73;;;28.30;90.60;;;;;;4955730;28;20983;-66
2023/09/09 16:28:15;;;;;;;1.00;1.00;;;28.30;90.30;;;;;;4963156;28;20211;-68
2023/09/09 16:30:42;;;;;;;0.83;0.70;;;28.30;90.30;;;;;;4959787;28;20183;-68
2023/09/09 16:33:07;;;;;;;0.67;0.67;;;28.30;90.30;;;;;;4956154;28;20187;-69
2023/09/09 16:35:33;;;;;;;0.97;0.73;;;28.30;90.10;;;;;;4955955;29;20447;-68
2023/09/09 16:37:59;;;;;;;0.60;0.60;;;28.30;90.10;;;;;;4973311;28;20720;-64
2023/09/09 16:40:24;;;;;;;1.60;0.50;;;28.30;90.30;;;;;;4975067;28;20263;-69
2023/09/09 16:42:50;;;;;;;0.60;0.50;;;28.30;90.30;;;;;;4973556;28;20179;-66
2023/09/09 16:45:16;;;;;;;0.93;0.70;;;28.20;90.30;;;;;;4966655;28;20255;-68
2023/09/09 16:47:42;;;;;;;0.63;0.63;;;28.20;90.30;;;;;;4968212;28;20177;-66
2023/09/09 16:50:08;;;;;;;1.10;0.83;;;28.10;90.50;;;;;;4973248;28;20192;-67
2023/09/09 16:52:33;;;;;;;0.30;0.30;;;28.10;90.60;;;;;;4958424;28;20441;-67